Time;durP1;ratioP1;P1;durP2;ratioP2;P2;SDS_P1;SDS_P2;PMS_P1;PMS_P2;Temp;Humidity;BMP_temperature;BMP_pressure;BME280_temperature;BME280_humidity;BME280_pressure;Samples;Min_cycle;Max_cycle;Signal;HPM_P1;HPM_P2
2021/03/19 00:01:37;;;;;;;146.45;67.75;;;;;;;-1.37;68.39;97027.08;1756563;81;25728;-92
2021/03/19 00:04:04;;;;;;;147.55;67.97;;;;;;;-1.38;68.41;97036.00;1756632;81;25869;-91
2021/03/19 00:06:33;;;;;;;153.87;68.35;;;;;;;-1.40;68.40;97033.98;1756529;81;27563;-89
2021/03/19 00:09:06;;;;;;;121.05;56.55;;;;;;;-1.48;68.37;97032.56;1756447;81;26251;-92
2021/03/19 00:11:35;;;;;;;125.87;56.68;;;;;;;-1.48;68.18;97029.92;1756653;81;25716;-88
2021/03/19 00:14:04;;;;;;;121.70;56.55;;;;;;;-1.44;68.09;97033.92;1756511;81;25581;-91
2021/03/19 00:16:32;;;;;;;116.42;54.75;;;;;;;-1.40;68.00;97027.36;1756617;81;25716;-87
2021/03/19 00:19:01;;;;;;;112.92;52.38;;;;;;;-1.40;67.83;97026.04;1756900;81;27568;-90
2021/03/19 00:21:28;;;;;;;116.08;53.08;;;;;;;-1.44;67.70;97035.24;1756619;81;26227;-88
2021/03/19 00:23:56;;;;;;;111.88;53.42;;;;;;;-1.53;67.70;97034.80;1756647;81;25804;-87
2021/03/19 00:26:24;;;;;;;114.42;53.10;;;;;;;-1.53;67.74;97025.53;1756610;81;26481;-90
2021/03/19 00:28:51;;;;;;;116.82;56.50;;;;;;;-1.56;67.64;97030.63;1756613;81;25771;-87
2021/03/19 00:31:19;;;;;;;119.22;54.18;;;;;;;-1.55;67.61;97034.11;1756759;81;28441;-89
2021/03/19 00:33:47;;;;;;;116.75;53.00;;;;;;;-1.60;67.70;97036.37;1756711;81;26237;-91
2021/03/19 00:36:14;;;;;;;116.45;55.43;;;;;;;-1.70;67.72;97039.55;1756753;81;25322;-90
2021/03/19 00:38:41;;;;;;;125.02;55.92;;;;;;;-1.74;67.89;97038.16;1756718;80;25774;-89
2021/03/19 00:41:09;;;;;;;140.10;64.17;;;;;;;-1.81;67.91;97034.75;1756802;81;25731;-88
2021/03/19 00:43:36;;;;;;;114.40;54.05;;;;;;;-1.83;67.99;97031.44;1756606;80;27537;-90
2021/03/19 00:46:04;;;;;;;117.17;51.08;;;;;;;-1.86;67.92;97030.39;1756659;81;25716;-89
2021/03/19 00:48:31;;;;;;;113.45;51.35;;;;;;;-1.83;67.91;97027.47;1756754;80;25808;-89
2021/03/19 00:50:58;;;;;;;108.35;52.13;;;;;;;-1.98;67.81;97025.41;1756661;81;26878;-89
2021/03/19 00:53:26;;;;;;;116.75;54.48;;;;;;;-2.05;68.16;97023.00;1756792;80;25798;-90
2021/03/19 00:55:54;;;;;;;115.57;54.38;;;;;;;-2.10;68.27;97017.30;1756712;81;27495;-91
2021/03/19 00:58:21;;;;;;;123.90;55.05;;;;;;;-2.11;68.41;97023.56;1756679;81;25771;-88
2021/03/19 01:00:48;;;;;;;113.28;53.63;;;;;;;-2.13;68.48;97015.77;1756718;81;25783;-90
2021/03/19 01:03:15;;;;;;;117.17;55.12;;;;;;;-2.18;68.51;97014.05;1756732;81;26498;-87
2021/03/19 01:05:45;;;;;;;119.50;56.18;;;;;;;-2.24;68.61;97019.41;1756690;81;25859;-88
2021/03/19 01:08:15;;;;;;;116.62;55.05;;;;;;;-2.22;68.72;97012.66;1756606;81;27486;-91
2021/03/19 01:10:53;;;;;;;126.38;54.65;;;;;;;-2.23;68.82;97016.27;1756732;81;25352;-90
2021/03/19 01:13:23;;;;;;;123.00;58.05;;;;;;;-2.22;68.94;97014.81;1756165;81;25333;-90
2021/03/19 01:15:51;;;;;;;124.00;56.85;;;;;;;-2.17;68.90;97009.08;1751017;81;25830;-90
2021/03/19 01:18:23;;;;;;;129.38;56.02;;;;;;;-2.17;68.88;97013.05;1751190;81;25782;-91
2021/03/19 01:20:51;;;;;;;;;;;;;;;-2.15;69.04;97011.58;1753688;81;28443;-90
2021/03/19 01:23:19;;;;;;;123.22;53.38;;;;;;;-2.10;68.99;97011.52;1750829;81;25745;-89
2021/03/19 01:25:46;;;;;;;124.87;55.67;;;;;;;-2.10;68.98;97015.48;1750907;81;25788;-91
2021/03/19 01:28:15;;;;;;;132.72;58.75;;;;;;;-2.10;68.99;97009.36;1751005;81;25510;-89
2021/03/19 01:30:44;;;;;;;131.50;59.67;;;;;;;-2.10;69.04;97003.59;1750784;81;25891;-90
2021/03/19 01:33:13;;;;;;;130.40;58.68;;;;;;;-2.06;69.08;97014.23;1750720;81;27542;-88
2021/03/19 01:35:42;;;;;;;124.30;57.60;;;;;;;-1.99;69.07;97012.67;1750820;81;26107;-89
2021/03/19 01:38:11;;;;;;;161.25;64.40;;;;;;;-1.99;69.03;97012.67;1750989;81;25762;-86
2021/03/19 01:40:45;;;;;;;131.93;61.53;;;;;;;-2.03;68.98;97005.16;1751063;81;25768;-86
2021/03/19 01:43:26;;;;;;;137.65;61.00;;;;;;;-2.04;69.04;97002.16;1751013;81;25756;-86
2021/03/19 01:46:44;;;;;;;126.12;58.33;;;;;;;-2.04;69.05;97000.84;1751025;81;27502;-86
2021/03/19 01:50:08;;;;;;;112.35;52.67;;;;;;;-2.00;69.04;97004.39;1750828;81;25901;-86
2021/03/19 01:53:12;;;;;;;;;;;;;;;-2.02;69.07;97016.08;1753614;81;25759;-87
2021/03/19 01:56:35;;;;;;;125.65;54.88;;;;;;;-2.19;69.18;97000.48;1751108;81;25963;-87
2021/03/19 01:59:58;;;;;;;118.72;54.18;;;;;;;-2.20;69.23;97006.74;1751199;80;25771;-86
2021/03/19 02:03:20;;;;;;;117.75;52.73;;;;;;;-2.19;69.35;97000.48;1751176;81;27552;-86
2021/03/19 02:06:43;;;;;;;125.35;56.73;;;;;;;-2.25;69.41;97000.55;1751049;81;25669;-88
2021/03/19 02:10:06;;;;;;;118.33;57.17;;;;;;;-2.26;69.69;97000.68;1751180;81;26355;-86
2021/03/19 02:13:29;;;;;;;119.80;54.85;;;;;;;-2.20;69.80;96998.81;1751065;81;25746;-86
2021/03/19 02:16:52;;;;;;;115.88;53.00;;;;;;;-2.14;69.67;97003.52;1756688;81;25516;-87
2021/03/19 02:20:15;;;;;;;108.90;51.25;;;;;;;-2.10;69.61;97001.42;1756667;81;27502;-88
2021/03/19 02:23:38;;;;;;;118.65;52.03;;;;;;;-2.09;69.57;97002.61;1756705;81;25393;-89
2021/03/19 02:27:01;;;;;;;110.30;51.15;;;;;;;-2.06;69.61;96996.20;1756682;81;25663;-87
2021/03/19 02:30:23;;;;;;;110.28;51.40;;;;;;;-2.04;69.68;97000.35;1756879;81;32577;-87
2021/03/19 02:32:51;;;;;;;115.05;50.20;;;;;;;-2.03;69.77;97003.34;1756743;81;25831;-87
2021/03/19 02:35:22;;;;;;;106.30;48.60;;;;;;;-1.97;69.63;97005.44;1756771;81;27645;-90
2021/03/19 02:37:50;;;;;;;104.60;51.13;;;;;;;-1.97;69.62;97000.63;1730087;81;26181;-86
2021/03/19 02:40:22;;;;;;;113.77;52.50;;;;;;;-2.00;69.68;97000.42;1756746;81;25727;-94
2021/03/19 02:42:51;;;;;;;127.45;56.98;;;;;;;-2.02;69.77;96999.73;1756755;81;26323;-91
2021/03/19 02:45:23;;;;;;;119.25;56.48;;;;;;;-2.07;69.76;97000.66;1756817;81;25767;-89
2021/03/19 02:47:50;;;;;;;;;;;;;;;-2.12;69.83;97000.24;1759374;81;27551;-86
2021/03/19 02:50:17;;;;;;;118.08;50.28;;;;;;;-2.11;69.96;97001.91;1756600;80;25763;-88
2021/03/19 02:52:45;;;;;;;115.90;53.58;;;;;;;-2.10;69.98;97004.91;1756901;81;25706;-87
2021/03/19 02:55:17;;;;;;;124.42;56.85;;;;;;;-2.11;70.04;97000.59;1756708;81;25735;-87
2021/03/19 02:57:44;;;;;;;120.77;54.42;;;;;;;-2.10;70.11;97000.94;1757029;81;25798;-87
2021/03/19 03:00:20;;;;;;;120.80;55.70;;;;;;;-2.10;70.16;97000.94;1756803;81;27552;-92
2021/03/19 03:02:47;;;;;;;116.95;54.88;;;;;;;-2.12;70.18;96998.92;1756714;81;25782;-86
2021/03/19 03:05:15;;;;;;;134.97;60.65;;;;;;;-2.16;70.17;97002.81;1756745;80;25755;-87
2021/03/19 03:07:43;;;;;;;151.68;66.80;;;;;;;-2.14;70.20;97006.16;1756705;81;25668;-86
2021/03/19 03:10:15;;;;;;;161.70;72.35;;;;;;;-2.12;70.21;97008.17;1756709;81;25772;-94
2021/03/19 03:12:42;;;;;;;123.70;57.15;;;;;;;-2.12;70.24;97005.53;1756777;81;28581;-91
2021/03/19 03:15:17;;;;;;;122.20;56.68;;;;;;;-2.13;70.25;97009.16;1753595;80;25886;-93
2021/03/19 03:17:45;;;;;;;118.93;55.65;;;;;;;-2.13;70.29;97011.80;1751163;81;25830;-89
2021/03/19 03:20:23;;;;;;;115.52;54.00;;;;;;;-2.14;70.30;97011.45;1751145;80;25840;-90
2021/03/19 03:22:51;;;;;;;102.70;45.90;;;;;;;-2.16;70.30;97012.07;1750562;81;25676;-92
2021/03/19 03:25:22;;;;;;;99.00;45.75;;;;;;;-2.17;70.21;97011.72;1751030;81;27496;-87
2021/03/19 03:27:50;;;;;;;89.72;41.00;;;;;;;-2.19;70.05;97013.22;1750894;81;25751;-86
2021/03/19 03:30:23;;;;;;;85.95;41.68;;;;;;;-2.20;69.93;97015.52;1750989;80;25720;-94
2021/03/19 03:32:51;;;;;;;90.25;40.43;;;;;;;-2.21;69.81;97006.39;1751103;81;25928;-89
2021/03/19 03:35:19;;;;;;;77.53;38.25;;;;;;;-2.17;69.87;97003.79;1751030;81;26519;-86
2021/03/19 03:37:47;;;;;;;84.77;37.83;;;;;;;-2.15;69.83;97004.48;1751045;81;27482;-88
2021/03/19 03:40:20;;;;;;;73.62;38.30;;;;;;;-2.15;69.77;97007.13;1751025;80;25692;-87
2021/03/19 03:42:47;;;;;;;85.77;39.80;;;;;;;-2.19;69.73;97001.80;1750021;80;25777;-87
2021/03/19 03:45:15;;;;;;;80.12;38.70;;;;;;;-2.17;69.67;97006.95;1751163;81;25734;-89
2021/03/19 03:47:43;;;;;;;77.35;38.35;;;;;;;-2.20;69.57;97006.74;1751242;81;25723;-90
2021/03/19 03:50:15;;;;;;;79.72;39.65;;;;;;;-2.23;69.56;97011.82;1751098;81;27611;-90
2021/03/19 03:52:42;;;;;;;73.33;37.08;;;;;;;-2.23;69.55;97005.70;1751336;81;25690;-90
2021/03/19 03:55:11;;;;;;;77.53;37.35;;;;;;;-2.23;69.63;97008.34;1750964;81;25732;-88
2021/03/19 03:57:38;;;;;;;78.75;37.83;;;;;;;-2.32;69.50;97003.42;1751233;81;25861;-88
2021/03/19 04:00:11;;;;;;;83.50;39.20;;;;;;;-2.30;69.58;97011.22;1751129;81;26331;-88
2021/03/19 04:02:39;;;;;;;79.77;37.48;;;;;;;-2.29;69.60;97008.89;1751049;81;27549;-91
2021/03/19 04:05:11;;;;;;;78.85;37.45;;;;;;;-2.31;69.65;97005.09;1751072;81;25377;-86
2021/03/19 04:07:39;;;;;;;82.75;39.25;;;;;;;-2.36;69.61;97007.31;1751324;81;25684;-92
2021/03/19 04:10:07;;;;;;;73.02;36.88;;;;;;;-2.39;69.62;97010.72;1751242;81;26259;-90
2021/03/19 04:12:34;;;;;;;84.95;40.40;;;;;;;-2.39;69.64;97013.36;1751283;81;25334;-86
2021/03/19 04:15:02;;;;;;;77.62;36.65;;;;;;;-2.44;69.64;97010.32;1753282;81;27503;-87
2021/03/19 04:17:33;;;;;;;78.20;37.65;;;;;;;-2.43;69.69;97008.03;1757414;81;25746;-88
2021/03/19 04:20:03;;;;;;;98.07;44.03;;;;;;;-2.46;69.74;97009.14;1757378;81;25316;-89
2021/03/19 04:22:30;;;;;;;93.25;43.48;;;;;;;-2.55;69.60;97010.82;1757102;80;25702;-88
2021/03/19 04:24:58;;;;;;;89.70;42.05;;;;;;;-2.62;69.62;97008.86;1757046;81;25874;-87
2021/03/19 04:27:29;;;;;;;86.67;40.70;;;;;;;-2.64;69.66;97014.28;1756778;80;27500;-88
2021/03/19 04:29:57;;;;;;;92.12;41.23;;;;;;;-2.67;69.73;97012.42;1729084;81;25405;-90
2021/03/19 04:32:26;;;;;;;88.30;40.88;;;;;;;-2.68;69.69;97015.55;1756585;81;25684;-88
2021/03/19 04:34:54;;;;;;;81.82;39.85;;;;;;;-2.69;69.63;97016.52;1756562;81;26256;-91
2021/03/19 04:37:22;;;;;;;77.05;36.45;;;;;;;-2.72;69.61;97014.14;1756547;80;25760;-87
2021/03/19 04:39:50;;;;;;;87.70;39.48;;;;;;;-2.77;69.54;97022.13;1756666;81;27549;-88
2021/03/19 04:42:18;;;;;;;82.60;39.42;;;;;;;-2.86;69.57;97022.47;1756614;81;25785;-91
2021/03/19 04:44:48;;;;;;;84.55;40.67;;;;;;;-2.90;69.67;97024.55;1756653;80;25474;-86
2021/03/19 04:47:16;;;;;;;71.57;34.90;;;;;;;-2.93;69.78;97025.33;1756711;81;26474;-89
2021/03/19 04:49:44;;;;;;;72.75;35.00;;;;;;;-3.01;69.72;97027.31;1756707;81;25739;-88
2021/03/19 04:52:11;;;;;;;69.20;35.33;;;;;;;-3.15;69.60;97018.97;1756638;81;27474;-89
2021/03/19 04:54:38;;;;;;;77.15;37.08;;;;;;;-3.24;69.71;97026.36;1756493;81;26255;-92
2021/03/19 04:57:06;;;;;;;78.47;37.95;;;;;;;-3.26;69.85;97027.33;1756581;81;25723;-89
2021/03/19 04:59:33;;;;;;;77.82;37.58;;;;;;;-3.22;70.00;97027.06;1756589;81;25461;-86
2021/03/19 05:02:01;;;;;;;87.47;40.55;;;;;;;-3.19;70.10;97025.00;1756451;81;26168;-86
2021/03/19 05:04:30;;;;;;;79.20;38.88;;;;;;;-3.17;70.21;97028.83;1756401;81;27420;-85
2021/03/19 05:07:03;;;;;;;94.50;42.85;;;;;;;-3.19;70.20;97026.80;1756470;81;26240;-88
2021/03/19 05:09:32;;;;;;;101.55;44.90;;;;;;;-3.19;70.25;97028.96;1756651;81;25725;-89
2021/03/19 05:12:02;;;;;;;104.10;46.13;;;;;;;-3.18;70.31;97034.59;1756693;80;26522;-88
2021/03/19 05:14:30;;;;;;;111.70;49.73;;;;;;;-3.22;70.24;97030.55;1756675;80;25811;-89
2021/03/19 05:16:57;;;;;;;115.65;49.60;;;;;;;-3.22;70.37;97029.22;1751129;81;26685;-90
2021/03/19 05:19:25;;;;;;;109.57;48.42;;;;;;;-3.15;70.41;97026.89;1750845;81;25409;-88
2021/03/19 05:21:53;;;;;;;106.83;48.23;;;;;;;-3.13;70.47;97032.84;1751101;80;25708;-88
2021/03/19 05:24:20;;;;;;;112.37;51.63;;;;;;;-3.14;70.53;97037.80;1751031;81;25821;-88
2021/03/19 05:26:48;;;;;;;117.33;49.95;;;;;;;-3.09;70.60;97039.05;1751143;81;25687;-88
2021/03/19 05:29:15;;;;;;;111.37;49.18;;;;;;;-3.05;70.72;97036.50;1750765;81;27561;-86
2021/03/19 05:31:43;;;;;;;112.52;51.28;;;;;;;-2.99;70.69;97039.06;1750836;80;25664;-89
2021/03/19 05:34:13;;;;;;;103.38;48.40;;;;;;;-2.95;70.61;97040.47;1751183;80;25286;-89
2021/03/19 05:36:41;;;;;;;108.60;50.48;;;;;;;-2.88;70.66;97047.34;1751174;81;26473;-94
2021/03/19 05:39:11;;;;;;;108.57;48.58;;;;;;;-2.86;70.61;97041.45;1751156;81;25370;-95
2021/03/19 05:41:42;;;;;;;109.27;48.33;;;;;;;-2.85;70.50;97047.08;1751185;81;27439;-95
2021/03/19 05:44:23;;;;;;;117.33;50.67;;;;;;;-2.88;70.50;97045.55;1751097;81;25531;-89
2021/03/19 05:47:04;;;;;;;111.28;51.35;;;;;;;-2.85;70.54;97045.28;1751329;81;25756;-95
2021/03/19 05:49:35;;;;;;;99.65;46.40;;;;;;;-2.82;70.55;97046.33;1751345;81;25609;-89
2021/03/19 05:52:10;;;;;;;108.03;49.98;;;;;;;-2.81;70.50;97049.33;1751297;81;25655;-86
2021/03/19 05:54:44;;;;;;;100.33;46.80;;;;;;;-2.79;70.59;97047.87;1750709;81;27574;-88
2021/03/19 05:57:23;;;;;;;107.40;48.75;;;;;;;-2.73;70.60;97056.06;1750712;81;25669;-85
2021/03/19 05:59:54;;;;;;;92.53;43.20;;;;;;;-2.72;70.67;97057.73;1748059;81;25779;-87
2021/03/19 06:02:38;;;;;;;85.70;39.37;;;;;;;-2.75;70.61;97055.36;1751094;81;25769;-90
2021/03/19 06:05:14;;;;;;;105.07;48.52;;;;;;;-2.77;70.59;97053.34;1750754;81;25784;-84
2021/03/19 06:08:05;;;;;;;102.92;49.67;;;;;;;-2.71;70.71;97055.93;1750872;80;28448;-84
2021/03/19 06:10:36;;;;;;;131.20;62.98;;;;;;;-2.68;70.66;97063.59;1750707;81;25296;-84
2021/03/19 06:13:15;;;;;;;143.55;69.00;;;;;;;-2.63;70.73;97062.67;1750924;80;25283;-85
2021/03/19 06:15:53;;;;;;;166.88;77.90;;;;;;;-2.56;70.58;97060.68;1749568;81;26553;-85
2021/03/19 06:18:38;;;;;;;109.45;54.70;;;;;;;-2.48;70.55;97053.85;1746278;81;25702;-84
2021/03/19 06:21:30;;;;;;;110.30;52.40;;;;;;;-2.45;70.38;97057.06;1750932;81;28468;-85
2021/03/19 06:24:24;;;;;;;106.47;49.95;;;;;;;-2.41;70.44;97061.56;1751075;81;25688;-84
2021/03/19 06:26:54;;;;;;;106.80;51.28;;;;;;;-2.33;70.46;97061.23;1750926;81;25793;-85
2021/03/19 06:29:44;;;;;;;149.77;60.55;;;;;;;-2.28;70.47;97066.08;1750994;81;25799;-86
2021/03/19 06:32:26;;;;;;;108.80;51.55;;;;;;;-2.24;70.41;97057.74;1750842;81;25305;-85
2021/03/19 06:35:17;;;;;;;84.28;39.18;;;;;;;-2.17;70.41;97070.41;1751017;81;28542;-85
2021/03/19 06:37:51;;;;;;;103.40;47.67;;;;;;;-2.14;70.37;97065.66;1750777;81;25723;-85
2021/03/19 06:40:36;;;;;;;86.40;43.17;;;;;;;-2.12;70.10;97073.45;1750824;81;25822;-85
2021/03/19 06:43:28;;;;;;;95.47;42.05;;;;;;;-2.03;69.75;97065.50;1750877;81;26452;-85
2021/03/19 06:46:28;;;;;;;81.35;36.08;;;;;;;-1.98;69.52;97075.19;1751047;81;25884;-85
2021/03/19 06:49:00;;;;;;;68.52;33.63;;;;;;;-1.87;69.43;97069.73;1748099;81;28588;-85
2021/03/19 06:54:30;;;;;;;84.25;40.43;;;;;;;-1.61;69.27;97064.66;1849343;76;35084;-84
2021/03/19 06:57:14;;;;;;;89.05;43.50;;;;;;;-1.59;69.15;97064.52;1815767;78;25926;-84
2021/03/19 06:59:57;;;;;;;85.85;41.10;;;;;;;-1.49;68.95;97074.58;1820133;78;26904;-85
2021/03/19 07:02:48;;;;;;;90.17;42.75;;;;;;;-1.43;69.04;97072.66;1788378;78;25875;-84
2021/03/19 07:05:53;;;;;;;338.27;134.30;;;;;;;-1.40;68.79;97069.72;1820092;78;25737;-85
2021/03/19 07:08:55;;;;;;;248.15;100.27;;;;;;;-1.33;68.85;97069.50;1820098;78;25754;-85
2021/03/19 07:11:48;;;;;;;116.10;47.45;;;;;;;-1.24;68.76;97067.30;1820195;78;25806;-85
2021/03/19 07:14:57;;;;;;;102.85;47.30;;;;;;;-1.21;68.73;97072.28;1820056;77;28408;-85
2021/03/19 07:17:39;;;;;;;105.07;49.27;;;;;;;-1.22;68.62;97071.97;1819946;78;25796;-85
2021/03/19 07:20:37;;;;;;;105.12;48.92;;;;;;;-1.13;68.75;97077.70;1819488;78;25884;-85
2021/03/19 07:23:19;;;;;;;95.83;48.08;;;;;;;-1.04;68.81;97073.81;1819737;78;25709;-86
2021/03/19 07:26:12;;;;;;;95.22;46.75;;;;;;;-0.95;68.72;97080.87;1819972;78;27436;-85
2021/03/19 07:29:03;;;;;;;81.02;42.88;;;;;;;-0.93;68.77;97081.56;1819792;78;27486;-85
2021/03/19 07:31:54;;;;;;;96.15;44.10;;;;;;;-0.80;68.81;97078.07;1768251;80;25944;-86
2021/03/19 07:34:35;;;;;;;91.92;45.05;;;;;;;-0.66;68.42;97085.52;1820038;78;25810;-86
2021/03/19 07:37:11;;;;;;;73.92;35.90;;;;;;;-0.58;68.18;97080.30;1820192;78;25689;-87
2021/03/19 07:40:14;;;;;;;99.85;48.50;;;;;;;-0.57;67.94;97081.13;1820115;78;25770;-86
2021/03/19 07:43:13;;;;;;;150.40;52.80;;;;;;;-0.53;67.90;97080.69;1819984;77;27478;-86
2021/03/19 07:46:17;;;;;;;142.50;52.67;;;;;;;-0.50;67.82;97076.42;1820014;78;25850;-86
2021/03/19 07:49:25;;;;;;;106.85;48.28;;;;;;;-0.41;67.89;97080.81;1820069;77;25386;-86
2021/03/19 07:52:36;;;;;;;189.80;60.63;;;;;;;-0.33;67.78;97073.91;1820041;78;25727;-86
2021/03/19 07:55:18;;;;;;;137.62;52.98;;;;;;;-0.28;67.68;97074.30;1819955;78;26232;-87
2021/03/19 07:57:50;;;;;;;103.78;49.20;;;;;;;-0.22;67.66;97072.34;1819240;78;28660;-87
2021/03/19 08:00:33;;;;;;;88.27;43.73;;;;;;;-0.14;67.70;97075.09;1820016;78;25736;-87
2021/03/19 08:03:15;;;;;;;90.67;45.10;;;;;;;-0.10;67.67;97077.75;1821549;77;25675;-86
2021/03/19 08:05:52;;;;;;;85.97;44.13;;;;;;;-0.08;67.63;97079.77;1782195;78;25799;-85
2021/03/19 08:08:39;;;;;;;89.72;46.63;;;;;;;-0.07;67.69;97074.31;1819446;78;25710;-86
2021/03/19 08:11:21;;;;;;;82.50;43.42;;;;;;;-0.04;67.76;97076.67;1819375;77;27494;-86
2021/03/19 08:14:42;;;;;;;82.27;42.83;;;;;;;0.02;67.52;97076.53;1819277;78;25836;-85
2021/03/19 08:17:36;;;;;;;82.30;42.20;;;;;;;0.06;67.41;97075.25;1783543;80;25826;-85
2021/03/19 08:20:30;;;;;;;86.40;44.63;;;;;;;0.18;67.41;97075.34;1783547;79;25714;-86
2021/03/19 08:23:09;;;;;;;82.08;42.03;;;;;;;0.21;67.25;97077.69;1754125;81;25715;-86
2021/03/19 08:25:45;;;;;;;86.32;43.05;;;;;;;0.23;66.90;97079.70;1753757;81;27675;-85
2021/03/19 08:28:38;;;;;;;84.20;40.83;;;;;;;0.20;66.95;97073.37;1753730;81;25883;-85
2021/03/19 08:31:27;;;;;;;84.72;42.83;;;;;;;0.21;67.01;97078.19;1719551;81;25702;-86
2021/03/19 08:34:34;;;;;;;83.82;42.93;;;;;;;0.16;67.10;97074.66;1754051;81;25855;-85
2021/03/19 08:37:01;;;;;;;73.07;39.30;;;;;;;0.18;67.00;97077.99;1754049;81;25942;-86
2021/03/19 08:39:40;;;;;;;89.92;41.30;;;;;;;0.10;66.56;97075.78;1753911;81;27478;-86
2021/03/19 08:42:21;;;;;;;72.08;38.28;;;;;;;0.10;66.74;97079.27;1753897;80;25791;-86
2021/03/19 08:44:49;;;;;;;78.37;38.00;;;;;;;0.04;66.89;97059.13;1754329;81;25325;-85
2021/03/19 08:47:44;;;;;;;76.77;40.03;;;;;;;0.28;66.80;97081.37;1753971;80;25773;-85
2021/03/19 08:50:33;;;;;;;72.82;38.78;;;;;;;0.35;66.87;97071.82;1734081;81;25763;-86
2021/03/19 08:53:24;;;;;;;64.22;35.30;;;;;;;0.40;66.84;97075.31;1735250;80;27718;-85
2021/03/19 08:56:08;;;;;;;43.55;24.75;;;;;;;0.46;66.82;97079.19;1792234;78;25648;-85
2021/03/19 08:58:52;;;;;;;37.05;19.95;;;;;;;0.51;66.57;97076.38;1757321;81;25789;-86
2021/03/19 09:01:52;;;;;;;48.15;23.18;;;;;;;0.50;66.54;97077.86;1757729;81;26075;-85
2021/03/19 09:04:39;;;;;;;41.80;19.87;;;;;;;0.55;66.38;97080.40;1757747;81;25680;-86
2021/03/19 09:07:38;;;;;;;46.15;21.95;;;;;;;0.54;65.87;97075.23;1757754;81;28645;-85
2021/03/19 09:10:23;;;;;;;50.50;26.75;;;;;;;0.40;65.92;97074.48;1757754;81;25738;-86
2021/03/19 09:13:07;;;;;;;65.72;32.03;;;;;;;0.33;66.10;97077.77;1757679;81;25675;-86
2021/03/19 09:15:33;;;;;;;62.23;29.85;;;;;;;0.40;66.55;97081.95;1757357;81;25569;-85
2021/03/19 09:18:08;;;;;;;62.00;32.93;;;;;;;0.51;66.50;97069.73;1757832;81;25716;-85
2021/03/19 09:21:02;;;;;;;64.10;33.40;;;;;;;0.61;66.49;97079.75;1767311;81;27726;-85
2021/03/19 09:23:49;;;;;;;64.27;32.85;;;;;;;0.73;66.48;97078.49;1757629;81;25728;-85
2021/03/19 09:26:28;;;;;;;69.47;37.35;;;;;;;0.87;66.61;97075.74;1757687;81;25352;-86
2021/03/19 09:29:16;;;;;;;63.10;33.88;;;;;;;0.96;66.76;97075.31;1757216;81;25759;-85
2021/03/19 09:31:54;;;;;;;68.00;36.88;;;;;;;1.14;66.57;97075.20;1757883;81;25997;-85
2021/03/19 09:34:33;;;;;;;64.17;33.50;;;;;;;1.26;66.27;97077.89;1757818;81;28455;-86
2021/03/19 09:37:38;;;;;;;62.38;33.18;;;;;;;1.40;65.92;97071.96;1737732;81;25755;-85
2021/03/19 09:40:14;;;;;;;63.83;33.45;;;;;;;1.46;65.62;97061.98;1757739;81;25645;-86
2021/03/19 09:42:52;;;;;;;48.20;28.57;;;;;;;1.61;65.69;97067.02;1755126;81;26197;-85
2021/03/19 09:45:24;;;;;;;53.45;25.25;;;;;;;1.72;65.18;97071.19;1757762;81;25783;-85
2021/03/19 09:48:03;;;;;;;44.80;24.72;;;;;;;1.72;64.73;97064.53;1757816;81;27606;-85
2021/03/19 09:50:34;;;;;;;46.00;25.72;;;;;;;1.77;64.77;97063.55;1757704;81;25796;-85
2021/03/19 09:53:13;;;;;;;50.80;27.37;;;;;;;1.74;64.38;97070.03;1757226;81;25944;-85
2021/03/19 09:58:43;;;;;;;57.05;31.00;;;;;;;1.75;64.24;97067.70;1848345;76;34792;-84
2021/03/19 10:01:16;;;;;;;;;;;;;;;1.65;64.17;97068.86;1822778;78;25798;-84
2021/03/19 10:03:53;;;;;;;58.10;32.13;;;;;;;1.50;64.35;97073.97;1820021;78;27427;-85
2021/03/19 10:06:32;;;;;;;47.65;27.85;;;;;;;1.51;64.57;97077.47;1819687;78;26360;-84
2021/03/19 10:09:11;;;;;;;45.58;24.10;;;;;;;1.51;64.50;97083.63;1820084;78;25725;-84
2021/03/19 10:12:14;;;;;;;43.08;27.25;;;;;;;1.42;64.39;97084.61;1818816;77;25788;-85
2021/03/19 10:14:45;;;;;;;45.15;24.40;;;;;;;1.03;64.50;97083.80;1820210;78;25754;-84
2021/03/19 10:17:33;;;;;;;42.27;23.32;;;;;;;1.01;64.93;97086.27;1820151;78;28332;-84
2021/03/19 10:20:18;;;;;;;54.73;29.85;;;;;;;0.99;65.11;97089.09;1819849;78;26343;-86
2021/03/19 10:22:52;;;;;;;77.20;39.30;;;;;;;0.98;65.16;97092.73;1820001;78;25793;-85
2021/03/19 10:25:34;;;;;;;47.48;24.85;;;;;;;0.82;65.16;97091.34;1819905;78;25665;-86
2021/03/19 10:28:07;;;;;;;36.15;22.13;;;;;;;0.71;65.41;97098.27;1820149;78;26155;-85
2021/03/19 10:30:44;;;;;;;48.52;25.30;;;;;;;0.64;65.30;97094.55;1820087;78;27532;-86
2021/03/19 10:33:20;;;;;;;59.35;28.92;;;;;;;0.64;65.51;97094.55;1819277;77;25772;-87
2021/03/19 10:35:52;;;;;;;52.65;27.48;;;;;;;0.59;65.52;97091.55;1820085;78;25869;-86
2021/03/19 10:38:28;;;;;;;34.15;18.80;;;;;;;0.59;65.49;97091.55;1817362;78;25960;-85
2021/03/19 10:41:30;;;;;;;24.12;14.75;;;;;;;0.51;65.08;97091.48;1819965;78;25892;-86
2021/03/19 10:44:22;;;;;;;21.37;12.95;;;;;;;0.51;64.41;97090.16;1820006;78;27691;-87
2021/03/19 10:47:10;;;;;;;25.17;12.93;;;;;;;0.46;64.20;97092.46;1820059;78;25767;-87
2021/03/19 10:49:48;;;;;;;22.22;11.83;;;;;;;0.52;64.04;97095.80;1818585;77;25718;-86
2021/03/19 10:52:36;;;;;;;21.20;13.43;;;;;;;0.57;63.93;97094.36;1820071;78;25754;-85
2021/03/19 10:55:09;;;;;;;22.40;13.48;;;;;;;0.66;63.94;97090.75;1814396;78;25724;-85
2021/03/19 10:57:40;;;;;;;21.68;13.53;;;;;;;0.79;63.49;97095.64;1822952;78;27506;-85
2021/03/19 11:00:38;;;;;;;21.90;12.88;;;;;;;0.92;63.43;97092.06;1826144;78;25765;-86
2021/03/19 11:03:08;;;;;;;25.15;14.83;;;;;;;0.95;63.09;97086.43;1826014;78;25844;-85
2021/03/19 11:06:00;;;;;;;28.77;17.17;;;;;;;0.97;63.14;97087.58;1826104;78;25760;-87
2021/03/19 11:08:28;;;;;;;26.95;16.15;;;;;;;1.16;63.47;97082.02;1825955;78;25638;-85
2021/03/19 11:10:57;;;;;;;33.83;17.95;;;;;;;1.64;63.35;97080.00;1825404;78;27483;-87
2021/03/19 11:13:32;;;;;;;33.02;18.37;;;;;;;1.86;62.62;97081.68;1825331;78;25703;-85
2021/03/19 11:16:05;;;;;;;35.10;19.37;;;;;;;1.94;62.45;97075.02;1825444;77;25737;-86
2021/03/19 11:18:39;;;;;;;38.45;21.10;;;;;;;1.86;61.91;97071.03;1825427;78;25697;-85
2021/03/19 11:21:12;;;;;;;36.55;20.95;;;;;;;1.74;61.99;97070.52;1825425;77;25778;-86
2021/03/19 11:23:45;;;;;;;33.30;19.98;;;;;;;1.73;62.08;97063.04;1825376;78;27666;-86
2021/03/19 11:26:26;;;;;;;36.23;21.02;;;;;;;1.71;61.92;97057.05;1825497;78;25958;-86
2021/03/19 11:29:20;;;;;;;38.38;21.48;;;;;;;1.79;62.08;97051.75;1825542;78;25730;-86
2021/03/19 11:32:07;;;;;;;38.35;21.55;;;;;;;1.97;61.86;97052.08;1825564;78;25677;-84
2021/03/19 11:34:51;;;;;;;39.95;22.52;;;;;;;2.13;61.59;97047.59;1825544;78;25679;-85
2021/03/19 11:37:27;;;;;;;54.65;24.72;;;;;;;2.36;61.65;97046.89;1805235;79;27489;-84
2021/03/19 11:42:55;;;;;;;34.75;19.20;;;;;;;2.99;61.13;97036.23;1849458;76;34768;-85
2021/03/19 11:45:30;;;;;;;34.53;18.50;;;;;;;3.42;60.79;97042.02;1820099;78;25771;-85
2021/03/19 11:48:17;;;;;;;33.65;18.52;;;;;;;3.81;60.02;97036.09;1820022;78;28333;-85
2021/03/19 11:50:50;;;;;;;32.65;17.87;;;;;;;4.20;59.61;97035.95;1820053;78;25650;-85
2021/03/19 11:53:28;;;;;;;33.35;18.40;;;;;;;4.30;58.05;97033.85;1819399;78;25745;-84
2021/03/19 11:55:58;;;;;;;29.25;16.42;;;;;;;4.41;57.82;97036.59;1820151;78;25677;-85
2021/03/19 11:58:32;;;;;;;27.05;14.95;;;;;;;4.65;57.56;97040.86;1820127;78;25730;-84
2021/03/19 12:01:01;;;;;;;30.88;15.90;;;;;;;4.71;56.73;97034.25;1820086;78;27498;-84
2021/03/19 12:03:50;;;;;;;23.77;13.83;;;;;;;4.67;55.85;97039.67;1820136;78;25927;-84
2021/03/19 12:06:23;;;;;;;32.40;17.40;;;;;;;4.63;55.32;97038.36;1820157;78;25800;-84
2021/03/19 12:08:52;;;;;;;29.30;17.12;;;;;;;4.49;55.35;97043.18;1819853;78;25716;-84
2021/03/19 12:11:35;;;;;;;27.27;16.95;;;;;;;4.44;55.17;97039.41;1820236;78;25796;-85
2021/03/19 12:14:05;;;;;;;28.23;16.57;;;;;;;4.34;54.95;97034.33;1820085;78;27483;-84
2021/03/19 12:16:32;;;;;;;28.27;17.02;;;;;;;4.22;55.07;97029.92;1820059;78;26172;-85
2021/03/19 12:19:00;;;;;;;22.40;14.43;;;;;;;4.10;54.83;97034.04;1820077;78;25769;-85